Time;durP1;ratioP1;P1;durP2;ratioP2;P2;SDS_P1;SDS_P2;PMS_P1;PMS_P2;Temp;Humidity;BMP_temperature;BMP_pressure;BME280_temperature;BME280_humidity;BME280_pressure;Samples;Min_cycle;Max_cycle;Signal;HPM_P1;HPM_P2
2021/06/25 00:01:53;;;;;;;7.47;6.68;;;;;;;22.03;74.62;100877.38;4878112;28;102775;-62
2021/06/25 00:04:19;;;;;;;10.75;6.72;;;;;;;22.03;74.61;100880.13;4889370;28;102392;-61
2021/06/25 00:06:46;;;;;;;6.78;6.18;;;;;;;22.02;74.75;100884.06;4889662;28;103088;-61
2021/06/25 00:09:12;;;;;;;9.25;7.47;;;;;;;22.03;74.70;100888.44;4893128;28;102561;-61
2021/06/25 00:11:40;;;;;;;8.73;7.22;;;;;;;22.01;74.59;100877.72;4890939;28;103789;-61
2021/06/25 00:14:08;;;;;;;8.38;7.20;;;;;;;22.03;74.69;100885.69;4890567;28;102304;-61
2021/06/25 00:16:35;;;;;;;8.43;7.32;;;;;;;22.02;74.64;100878.53;4892713;28;102438;-62
2021/06/25 00:19:02;;;;;;;9.52;7.43;;;;;;;22.01;74.82;100871.38;4892240;28;102320;-62
2021/06/25 00:21:28;;;;;;;8.70;6.95;;;;;;;22.02;74.83;100870.22;4891922;28;104111;-61
2021/06/25 00:23:55;;;;;;;8.50;7.05;;;;;;;22.00;74.73;100865.03;4890445;28;102492;-62
2021/06/25 00:26:21;;;;;;;9.45;7.47;;;;;;;22.01;74.85;100871.38;4892353;28;102151;-62
2021/06/25 00:28:49;;;;;;;7.47;6.78;;;;;;;22.00;74.77;100876.13;4891314;28;102858;-62
2021/06/25 00:31:16;;;;;;;10.73;7.05;;;;;;;21.99;74.74;100880.00;4891166;28;104010;-62
2021/06/25 00:33:43;;;;;;;11.52;6.93;;;;;;;22.00;74.64;100864.22;4891840;28;102503;-61
2021/06/25 00:36:10;;;;;;;11.68;7.40;;;;;;;22.00;74.65;100869.78;4887714;28;103522;-61
2021/06/25 00:38:36;;;;;;;9.27;7.13;;;;;;;22.00;74.83;100869.78;4890187;28;102715;-61
2021/06/25 00:41:03;;;;;;;10.68;7.20;;;;;;;22.00;75.00;100864.22;4891345;28;104029;-62
2021/06/25 00:43:29;;;;;;;9.68;7.35;;;;;;;21.99;74.97;100860.63;4891987;28;102479;-62
2021/06/25 00:45:58;;;;;;;8.75;7.15;;;;;;;21.99;74.74;100866.16;4890902;28;102486;-61
2021/06/25 00:48:24;;;;;;;9.38;6.88;;;;;;;21.98;74.77;100866.53;4888185;28;102834;-62
2021/06/25 00:50:51;;;;;;;8.18;7.13;;;;;;;21.99;74.89;100862.59;4890734;28;104224;-62
2021/06/25 00:53:18;;;;;;;9.48;7.07;;;;;;;21.98;74.96;100859.00;4891774;28;102703;-61
2021/06/25 00:55:45;;;;;;;9.38;7.30;;;;;;;21.98;74.69;100850.69;4890338;28;102597;-61
2021/06/25 00:58:14;;;;;;;10.40;7.47;;;;;;;21.98;74.78;100847.13;4892619;28;102794;-62
2021/06/25 01:00:41;;;;;;;7.65;6.95;;;;;;;21.98;74.98;100844.34;4889357;28;103803;-61
2021/06/25 01:03:09;;;;;;;11.27;7.40;;;;;;;21.97;74.80;100848.28;4890956;28;102500;-62
2021/06/25 01:05:36;;;;;;;11.45;7.25;;;;;;;21.97;74.69;100834.44;4886791;28;102357;-62
2021/06/25 01:08:06;;;;;;;10.18;7.35;;;;;;;21.96;75.00;100827.25;4888973;28;102316;-63
2021/06/25 01:10:33;;;;;;;8.18;7.38;;;;;;;21.96;74.93;100830.03;4890943;28;104049;-62
2021/06/25 01:12:59;;;;;;;8.65;7.40;;;;;;;21.95;74.81;100834.75;4889660;28;102681;-62
2021/06/25 01:15:26;;;;;;;9.68;7.53;;;;;;;21.96;74.82;100841.09;4899847;28;102117;-62
2021/06/25 01:17:53;;;;;;;8.30;7.07;;;;;;;21.97;74.90;100853.81;4905988;28;102107;-62
2021/06/25 01:20:24;;;;;;;9.25;7.82;;;;;;;21.97;74.86;100857.41;4903267;28;103893;-61
2021/06/25 01:22:52;;;;;;;8.65;7.07;;;;;;;21.98;74.76;100849.91;4898957;28;102550;-62
2021/06/25 01:25:20;;;;;;;9.65;7.72;;;;;;;21.99;74.76;100848.72;4893428;28;102230;-62
2021/06/25 01:27:49;;;;;;;12.10;7.75;;;;;;;21.99;74.67;100848.72;4887827;28;102195;-62
2021/06/25 01:30:18;;;;;;;11.98;7.53;;;;;;;21.99;74.89;100854.28;4894801;28;104060;-62
2021/06/25 01:32:46;;;;;;;9.07;7.00;;;;;;;21.98;74.69;100847.13;4895167;28;102562;-62
2021/06/25 01:35:13;;;;;;;9.82;7.28;;;;;;;21.97;74.98;100848.28;4893238;28;102310;-61
2021/06/25 01:37:40;;;;;;;8.77;7.50;;;;;;;21.96;74.86;100849.41;4894523;28;102217;-61
2021/06/25 01:40:11;;;;;;;8.48;7.30;;;;;;;21.96;74.74;100864.09;4890703;28;103966;-62
2021/06/25 01:42:40;;;;;;;8.40;7.47;;;;;;;21.96;74.84;100866.88;4890253;28;102653;-62
2021/06/25 01:45:09;;;;;;;9.52;6.95;;;;;;;21.97;74.86;100859.38;4891385;28;102674;-61
2021/06/25 01:47:37;;;;;;;8.68;7.22;;;;;;;21.97;74.82;100859.38;4893797;28;102726;-62
2021/06/25 01:50:06;;;;;;;14.40;7.43;;;;;;;21.98;74.92;100866.53;4889440;28;103938;-62
2021/06/25 01:52:32;;;;;;;17.58;8.40;;;;;;;21.99;74.76;100873.66;4891190;28;102570;-62
2021/06/25 01:54:59;;;;;;;9.60;7.57;;;;;;;21.99;74.88;100868.94;4890493;28;102759;-61
2021/06/25 01:57:30;;;;;;;9.13;7.50;;;;;;;21.99;74.75;100868.13;4894214;28;102405;-62
2021/06/25 01:59:56;;;;;;;9.45;7.68;;;;;;;21.97;74.82;100853.81;4888445;28;103971;-62
2021/06/25 02:02:23;;;;;;;10.20;7.82;;;;;;;21.96;74.87;100857.72;4892866;28;104146;-62
2021/06/25 02:04:49;;;;;;;10.82;8.43;;;;;;;21.95;75.01;100856.13;4891631;28;102632;-62
2021/06/25 02:07:15;;;;;;;9.13;8.20;;;;;;;21.95;75.02;100859.69;4891817;28;102254;-62
2021/06/25 02:09:42;;;;;;;9.70;7.60;;;;;;;21.95;74.94;100854.16;4889265;28;103890;-61
2021/06/25 02:12:09;;;;;;;8.63;7.38;;;;;;;21.94;75.07;100847.00;4892258;28;102736;-63
2021/06/25 02:14:37;;;;;;;9.55;8.35;;;;;;;21.94;74.87;100837.88;4891739;28;102200;-62
2021/06/25 02:17:04;;;;;;;8.48;7.40;;;;;;;21.95;74.93;100839.50;4892271;28;102503;-62
2021/06/25 02:19:31;;;;;;;8.73;7.53;;;;;;;21.94;74.98;100846.19;4892295;28;102737;-61
2021/06/25 02:21:58;;;;;;;8.82;7.85;;;;;;;21.94;75.05;100851.75;4892185;28;102330;-61
2021/06/25 02:24:25;;;;;;;10.60;8.23;;;;;;;21.95;74.82;100850.56;4891423;28;102514;-61
2021/06/25 02:26:52;;;;;;;10.48;8.07;;;;;;;21.95;74.92;100853.34;4891427;28;102813;-61
2021/06/25 02:29:18;;;;;;;10.15;7.95;;;;;;;21.94;74.93;100854.50;4889569;28;103505;-62
2021/06/25 02:31:46;;;;;;;11.25;8.55;;;;;;;21.93;74.79;100852.91;4891796;28;102482;-61
2021/06/25 02:34:12;;;;;;;9.27;8.15;;;;;;;21.93;74.81;100847.38;4885682;28;105577;-63
2021/06/25 02:36:39;;;;;;;8.70;7.60;;;;;;;21.93;75.03;100848.16;4893091;28;102252;-61
2021/06/25 02:39:05;;;;;;;11.00;8.70;;;;;;;21.92;74.94;100840.19;4890673;28;102752;-62
2021/06/25 02:41:32;;;;;;;10.05;8.00;;;;;;;21.93;74.93;100848.16;4890917;28;102452;-62
2021/06/25 02:43:58;;;;;;;9.60;8.40;;;;;;;21.95;74.83;100850.56;4889867;28;102497;-62
2021/06/25 02:46:28;;;;;;;8.93;7.95;;;;;;;21.93;74.76;100844.59;4887011;28;102264;-62
2021/06/25 02:48:56;;;;;;;9.93;8.13;;;;;;;21.93;74.94;100847.38;4888179;28;104002;-61
2021/06/25 02:51:23;;;;;;;11.52;8.40;;;;;;;21.93;74.91;100850.13;4891431;28;102129;-61
2021/06/25 02:53:49;;;;;;;8.57;7.78;;;;;;;21.94;74.79;100868.38;4887411;28;102638;-62
2021/06/25 02:56:16;;;;;;;9.50;7.72;;;;;;;21.93;74.91;100859.25;4891607;28;102649;-61
2021/06/25 02:58:44;;;;;;;;;;;;;;;21.94;74.86;100865.59;4890899;28;104096;-61
2021/06/25 03:01:11;;;;;;;8.55;7.68;;;;;;;21.92;74.99;100863.16;4890338;28;102436;-61
2021/06/25 03:03:37;;;;;;;9.75;7.68;;;;;;;21.93;74.92;100864.00;4890373;28;102134;-62
2021/06/25 03:06:07;;;;;;;8.80;7.55;;;;;;;21.93;74.84;100872.31;4891900;28;102574;-61
2021/06/25 03:08:33;;;;;;;12.35;7.95;;;;;;;21.91;74.77;100872.63;4889052;28;103918;-61
2021/06/25 03:11:03;;;;;;;9.88;7.65;;;;;;;21.94;74.77;100876.69;4889343;28;102380;-62
2021/06/25 03:13:31;;;;;;;8.68;7.78;;;;;;;21.93;74.81;100875.88;4878257;28;102606;-62
2021/06/25 03:15:58;;;;;;;10.40;7.40;;;;;;;21.94;74.93;100873.91;4883752;28;102304;-62
2021/06/25 03:18:24;;;;;;;8.30;7.50;;;;;;;21.94;74.98;100882.22;4890051;28;103621;-62
2021/06/25 03:20:52;;;;;;;9.03;7.77;;;;;;;21.95;74.68;100881.06;4888243;28;102388;-62
2021/06/25 03:23:20;;;;;;;8.93;7.82;;;;;;;21.94;74.92;100876.69;4904413;28;103941;-62
2021/06/25 03:25:47;;;;;;;9.05;7.75;;;;;;;21.96;74.86;100882.66;4891373;28;102416;-62
2021/06/25 03:28:14;;;;;;;9.40;7.85;;;;;;;21.96;74.87;100871.59;4886915;28;103885;-62
2021/06/25 03:30:41;;;;;;;9.10;7.57;;;;;;;21.96;74.91;100874.34;4889499;28;102474;-62
2021/06/25 03:33:07;;;;;;;8.10;7.30;;;;;;;21.96;74.87;100875.19;4887648;28;102488;-62
2021/06/25 03:35:34;;;;;;;9.77;7.63;;;;;;;21.95;75.00;100872.75;4888176;28;102243;-61
2021/06/25 03:38:01;;;;;;;9.27;7.95;;;;;;;21.96;74.81;100875.19;4889543;28;103870;-62
2021/06/25 03:40:32;;;;;;;9.13;7.75;;;;;;;21.96;74.84;100877.13;4890861;28;101976;-61
2021/06/25 03:42:59;;;;;;;9.43;7.80;;;;;;;21.95;75.00;100867.19;4889095;28;102504;-61
2021/06/25 03:45:25;;;;;;;9.77;7.40;;;;;;;21.96;74.76;100874.34;4889574;28;102550;-62
2021/06/25 03:47:52;;;;;;;9.95;7.82;;;;;;;21.94;74.93;100868.38;4889070;28;104048;-63
2021/06/25 03:50:19;;;;;;;9.88;7.90;;;;;;;21.95;74.82;100869.97;4890849;28;102718;-62
2021/06/25 03:52:46;;;;;;;8.75;7.53;;;;;;;21.95;74.90;100872.75;4887121;28;102911;-62
2021/06/25 03:55:12;;;;;;;9.40;7.80;;;;;;;21.96;74.94;100871.59;4889877;28;102660;-62
2021/06/25 03:57:42;;;;;;;9.30;8.07;;;;;;;21.96;74.91;100869.66;4888478;28;103904;-61
2021/06/25 04:00:11;;;;;;;9.18;7.63;;;;;;;21.95;74.93;100867.19;4889787;28;102402;-61
2021/06/25 04:02:37;;;;;;;13.90;8.23;;;;;;;21.97;74.95;100870.44;4890001;28;102486;-61
2021/06/25 04:05:07;;;;;;;11.38;7.80;;;;;;;21.98;74.79;100883.16;4884089;28;102597;-62
2021/06/25 04:07:34;;;;;;;8.63;7.55;;;;;;;21.97;74.63;100879.56;4885198;28;103874;-62
2021/06/25 04:10:01;;;;;;;9.38;7.72;;;;;;;21.97;74.66;100876.00;4880637;28;102808;-62
2021/06/25 04:12:28;;;;;;;11.38;8.38;;;;;;;21.98;74.66;100883.16;4887974;28;102296;-61
2021/06/25 04:14:56;;;;;;;9.82;7.78;;;;;;;21.97;74.76;100882.34;4887810;28;102231;-63
2021/06/25 04:17:22;;;;;;;9.70;7.60;;;;;;;21.98;74.74;100878.41;4888565;28;103889;-61
2021/06/25 04:19:49;;;;;;;10.43;7.28;;;;;;;21.99;74.76;100884.75;4889548;28;102446;-62
2021/06/25 04:22:16;;;;;;;8.13;7.32;;;;;;;21.99;74.77;100879.22;4889100;28;102616;-62
2021/06/25 04:24:42;;;;;;;9.75;8.30;;;;;;;21.99;74.71;100890.28;4890249;28;102226;-61
2021/06/25 04:27:09;;;;;;;8.63;7.45;;;;;;;22.00;74.66;100892.75;4885737;28;104072;-61
2021/06/25 04:29:36;;;;;;;9.70;8.18;;;;;;;22.01;74.60;100888.00;4887319;28;102558;-62
2021/06/25 04:32:05;;;;;;;12.10;8.23;;;;;;;22.01;74.69;100893.53;4888448;28;102915;-62
2021/06/25 04:34:31;;;;;;;8.57;7.68;;;;;;;22.02;74.61;100892.38;4890089;28;102591;-62
2021/06/25 04:36:58;;;;;;;9.55;8.15;;;;;;;22.03;74.60;100885.69;4889548;28;103880;-62
2021/06/25 04:39:24;;;;;;;8.68;7.50;;;;;;;22.03;74.46;100880.13;4887557;28;103463;-62
2021/06/25 04:41:51;;;;;;;7.93;7.15;;;;;;;22.05;74.53;100875.88;4891374;28;102788;-62
2021/06/25 04:44:18;;;;;;;8.70;7.20;;;;;;;22.05;74.58;100877.84;4892399;28;102463;-62
2021/06/25 04:46:44;;;;;;;10.25;7.35;;;;;;;22.04;74.48;100871.50;4891405;28;104108;-62
2021/06/25 04:49:13;;;;;;;11.32;7.93;;;;;;;22.06;74.47;100868.38;4888046;28;102171;-61
2021/06/25 04:51:39;;;;;;;8.50;7.70;;;;;;;22.05;74.62;100866.75;4904530;28;102795;-62
2021/06/25 04:54:06;;;;;;;9.35;7.80;;;;;;;22.04;74.66;100865.94;4893230;28;102770;-62
2021/06/25 04:56:32;;;;;;;9.43;7.55;;;;;;;22.04;74.59;100871.50;4891724;28;103905;-62
2021/06/25 04:58:59;;;;;;;8.77;7.95;;;;;;;22.06;74.49;100879.44;4891289;28;102296;-62
2021/06/25 05:01:26;;;;;;;9.07;8.02;;;;;;;22.06;74.46;100865.59;4889141;28;102304;-62
2021/06/25 05:03:52;;;;;;;8.35;7.50;;;;;;;22.07;74.42;100870.81;4890792;28;102583;-62
2021/06/25 05:06:20;;;;;;;9.75;7.22;;;;;;;22.08;74.37;100860.53;4890721;28;104018;-61
2021/06/25 05:08:47;;;;;;;8.57;7.50;;;;;;;22.09;74.41;100856.59;4893057;28;102581;-63
2021/06/25 05:11:13;;;;;;;8.57;7.22;;;;;;;22.08;74.59;100861.34;4891272;28;102174;-62
2021/06/25 05:13:39;;;;;;;9.32;7.72;;;;;;;22.08;74.41;100857.75;4893084;28;102513;-62
2021/06/25 05:16:06;;;;;;;8.93;7.20;;;;;;;22.08;74.56;100861.34;4889120;28;104232;-62
2021/06/25 05:18:32;;;;;;;8.27;7.18;;;;;;;22.08;74.63;100857.75;4889907;28;102182;-62
2021/06/25 05:20:59;;;;;;;8.32;7.47;;;;;;;22.07;74.29;100853.38;4888830;28;102424;-62
2021/06/25 05:23:27;;;;;;;7.97;7.13;;;;;;;22.06;74.43;100846.19;4890018;28;102453;-61
2021/06/25 05:25:56;;;;;;;8.57;7.13;;;;;;;22.06;74.45;100851.75;4880190;28;104173;-62
2021/06/25 05:28:22;;;;;;;;;;;;;;;22.06;74.72;100847.00;4889537;28;102487;-62
2021/06/25 05:30:48;;;;;;;8.10;7.30;;;;;;;22.05;74.45;100841.81;4887970;28;102559;-62
2021/06/25 05:33:15;;;;;;;8.18;7.22;;;;;;;22.06;74.49;100840.66;4891597;28;102446;-61
2021/06/25 05:35:42;;;;;;;9.48;7.53;;;;;;;22.06;74.57;100832.34;4890530;28;102750;-62
2021/06/25 05:38:13;;;;;;;8.80;7.50;;;;;;;22.05;74.60;100831.53;4884033;28;102721;-62
2021/06/25 05:40:42;;;;;;;8.40;6.93;;;;;;;22.06;74.48;100829.56;4888777;28;102585;-62
2021/06/25 05:43:09;;;;;;;10.05;7.55;;;;;;;22.06;74.72;100829.56;4890105;28;102364;-61
2021/06/25 05:45:36;;;;;;;8.50;7.22;;;;;;;22.06;74.50;100824.03;4886903;28;103892;-61
2021/06/25 05:48:04;;;;;;;7.85;7.07;;;;;;;22.06;74.50;100835.91;4887128;28;102547;-61
2021/06/25 05:50:31;;;;;;;8.52;7.32;;;;;;;22.06;74.51;100830.38;4884966;28;102094;-62
2021/06/25 05:52:58;;;;;;;8.85;7.07;;;;;;;22.06;74.64;100835.09;4891329;28;102936;-62
2021/06/25 05:55:25;;;;;;;7.97;7.10;;;;;;;22.07;74.47;100832.00;4883455;28;104378;-64
2021/06/25 05:57:53;;;;;;;8.32;7.40;;;;;;;22.08;74.42;100838.34;4887012;28;102895;-63
2021/06/25 06:00:19;;;;;;;8.57;6.97;;;;;;;22.07;74.49;100837.56;4888960;28;102589;-63
2021/06/25 06:02:46;;;;;;;7.65;6.95;;;;;;;22.10;74.42;100836.03;4902513;28;102254;-61
2021/06/25 06:05:15;;;;;;;7.45;6.75;;;;;;;22.09;74.47;100834.41;4917452;28;102725;-62
2021/06/25 06:07:41;;;;;;;7.28;6.55;;;;;;;22.09;74.34;100839.97;4901924;28;102708;-63
2021/06/25 06:10:09;;;;;;;7.32;6.57;;;;;;;22.10;74.45;100840.78;4889449;28;102427;-63
2021/06/25 06:12:36;;;;;;;8.67;6.73;;;;;;;22.10;74.38;100835.22;4891762;28;102521;-62
2021/06/25 06:15:08;;;;;;;7.55;6.75;;;;;;;22.08;74.55;100850.25;4888841;28;103795;-62
2021/06/25 06:17:37;;;;;;;8.38;7.22;;;;;;;22.09;74.40;100856.59;4890997;28;102224;-63
2021/06/25 06:20:05;;;;;;;8.35;7.30;;;;;;;22.08;74.42;100860.53;4892346;28;102610;-63
2021/06/25 06:33:47;;;;;;;7.63;6.90;;;;;;;22.08;74.63;100877.97;4890236;28;102686;-62
2021/06/25 06:36:27;;;;;;;7.80;6.93;;;;;;;22.08;74.37;100877.16;4886456;28;103954;-63
2021/06/25 06:38:56;;;;;;;7.80;7.10;;;;;;;22.08;74.46;100888.25;4882003;28;102793;-63
2021/06/25 06:41:23;;;;;;;7.70;7.00;;;;;;;22.08;74.50;100894.59;4886316;28;103669;-62
2021/06/25 06:43:50;;;;;;;7.68;6.78;;;;;;;22.08;74.59;100900.13;4885468;28;102120;-62
2021/06/25 06:46:18;;;;;;;8.10;7.28;;;;;;;22.09;74.40;100903.72;4886370;28;102717;-62
2021/06/25 06:48:46;;;;;;;7.32;6.63;;;;;;;22.10;74.37;100901.75;4890983;28;102225;-62
2021/06/25 06:51:14;;;;;;;7.90;6.78;;;;;;;22.09;74.48;100889.84;4879967;28;102538;-62
2021/06/25 06:53:43;;;;;;;7.38;6.68;;;;;;;22.09;74.39;100884.31;4889491;28;102620;-61
2021/06/25 06:56:12;;;;;;;7.65;7.05;;;;;;;22.09;74.39;100889.84;4888457;28;103975;-62
2021/06/25 06:58:40;;;;;;;8.90;6.72;;;;;;;22.09;74.23;100887.06;4889128;28;102645;-62
2021/06/25 07:01:07;;;;;;;7.47;6.70;;;;;;;22.09;74.40;100889.84;4890091;28;102193;-62
2021/06/25 07:03:35;;;;;;;7.10;6.38;;;;;;;22.10;74.41;100893.44;4890018;28;102350;-62
2021/06/25 07:06:02;;;;;;;7.55;6.85;;;;;;;22.09;74.31;100884.31;4888656;28;104155;-62
2021/06/25 07:08:29;;;;;;;8.45;6.55;;;;;;;22.09;74.40;100881.53;4891650;28;102365;-62
2021/06/25 07:10:56;;;;;;;7.32;6.72;;;;;;;22.09;74.33;100873.22;4888519;28;102349;-62
2021/06/25 07:13:24;;;;;;;7.75;7.05;;;;;;;22.08;74.29;100877.16;4888861;28;102713;-62
2021/06/25 07:15:50;;;;;;;7.07;6.47;;;;;;;22.11;74.36;100870.09;4890897;28;104118;-62
2021/06/25 07:18:17;;;;;;;7.20;6.60;;;;;;;22.10;74.22;100869.28;4892196;28;102204;-62
2021/06/25 07:20:45;;;;;;;6.95;6.35;;;;;;;22.13;74.28;100879.69;4889607;28;102180;-63
2021/06/25 07:23:12;;;;;;;7.25;6.55;;;;;;;22.14;74.29;100878.56;4890751;28;102638;-62
2021/06/25 07:25:38;;;;;;;7.57;6.88;;;;;;;22.14;74.23;100873.00;4889493;28;104073;-62
2021/06/25 07:28:05;;;;;;;6.55;6.05;;;;;;;22.14;74.36;100864.69;4891825;28;102434;-62
2021/06/25 07:30:32;;;;;;;7.10;6.47;;;;;;;22.16;74.17;100867.94;4888622;28;102304;-62
2021/06/25 07:32:58;;;;;;;7.97;7.18;;;;;;;22.16;74.25;100867.94;4887311;28;103138;-61
2021/06/25 07:35:25;;;;;;;7.18;6.57;;;;;;;22.16;74.11;100862.41;4888326;28;103875;-62
2021/06/25 07:37:53;;;;;;;7.03;6.43;;;;;;;22.15;74.24;100858.03;4889846;28;102769;-62
2021/06/25 07:40:20;;;;;;;7.93;7.10;;;;;;;22.15;74.23;100860.00;4889443;28;102557;-62
2021/06/25 07:42:47;;;;;;;7.60;6.90;;;;;;;22.15;73.80;100860.78;4890278;28;102611;-62
2021/06/25 07:45:15;;;;;;;7.45;6.75;;;;;;;22.17;74.23;100869.56;4886293;28;103881;-62
2021/06/25 07:47:43;;;;;;;7.10;6.50;;;;;;;22.16;74.30;100864.38;4889851;28;102366;-62
2021/06/25 07:50:11;;;;;;;7.13;6.53;;;;;;;22.17;74.19;100852.91;4889784;28;103363;-62
2021/06/25 07:52:38;;;;;;;;;;;;;;;22.18;74.24;100865.66;4891342;28;102643;-62
2021/06/25 07:55:08;;;;;;;7.53;6.82;;;;;;;22.19;74.22;100863.69;4889199;28;103827;-62
2021/06/25 07:57:34;;;;;;;7.22;6.60;;;;;;;22.19;74.17;100872.81;4890350;28;102229;-62
2021/06/25 08:00:02;;;;;;;8.02;7.25;;;;;;;22.18;74.18;100859.28;4886518;28;102915;-62
2021/06/25 08:02:29;;;;;;;7.38;6.75;;;;;;;22.18;74.04;100860.09;4890571;28;102289;-62
2021/06/25 08:04:55;;;;;;;7.43;6.72;;;;;;;22.18;74.13;100860.09;4888542;28;104050;-62
2021/06/25 08:07:21;;;;;;;9.10;7.15;;;;;;;22.19;74.12;100864.50;4889240;28;102321;-61
2021/06/25 08:09:48;;;;;;;7.32;6.72;;;;;;;22.19;74.18;100860.91;4887768;28;102133;-62
2021/06/25 08:12:17;;;;;;;7.72;7.03;;;;;;;22.18;74.09;100859.28;4889080;28;102890;-62
2021/06/25 08:14:43;;;;;;;7.63;6.93;;;;;;;22.19;74.16;100866.44;4889987;28;102942;-62
2021/06/25 08:17:10;;;;;;;7.78;7.20;;;;;;;22.19;74.15;100863.69;4892973;28;102509;-61
2021/06/25 08:19:36;;;;;;;7.68;6.88;;;;;;;22.19;73.77;100866.44;4887473;28;102200;-62
2021/06/25 08:22:04;;;;;;;7.35;6.65;;;;;;;22.21;74.13;100870.47;4888612;28;102495;-62
2021/06/25 08:24:33;;;;;;;7.55;6.88;;;;;;;22.20;74.10;100868.88;4887616;28;103964;-62
2021/06/25 08:27:01;;;;;;;7.22;6.63;;;;;;;22.22;74.06;100871.31;4885451;28;102243;-61
2021/06/25 08:29:29;;;;;;;8.00;7.40;;;;;;;22.21;73.95;100870.47;4891619;28;102672;-61
2021/06/25 08:31:56;;;;;;;7.18;6.68;;;;;;;22.22;74.17;100872.13;4892746;28;102280;-62
2021/06/25 08:34:23;;;;;;;7.90;7.30;;;;;;;22.23;74.00;100870.16;4888489;28;104052;-62
2021/06/25 08:36:50;;;;;;;7.45;6.82;;;;;;;22.25;74.27;100876.97;4889336;28;102577;-62
2021/06/25 08:39:17;;;;;;;7.50;6.80;;;;;;;22.24;73.99;100880.88;4892104;28;102165;-62
2021/06/25 08:41:43;;;;;;;7.70;7.10;;;;;;;22.24;73.92;100882.84;4893683;28;102608;-62
2021/06/25 08:44:11;;;;;;;7.15;6.55;;;;;;;22.26;74.09;100884.13;4889743;28;104654;-62
2021/06/25 08:46:42;;;;;;;7.70;7.03;;;;;;;22.26;73.97;100878.56;4891695;28;102561;-61
2021/06/25 08:49:10;;;;;;;7.95;7.35;;;;;;;22.28;73.97;100876.25;4892580;28;103534;-62
2021/06/25 08:51:37;;;;;;;7.43;6.82;;;;;;;22.30;73.86;100879.50;4889306;28;102832;-62
2021/06/25 08:54:04;;;;;;;7.63;7.03;;;;;;;22.30;73.83;100876.72;4890081;28;103970;-62
2021/06/25 08:56:32;;;;;;;8.10;7.47;;;;;;;22.31;73.91;100881.09;4889559;28;102239;-62
2021/06/25 08:59:00;;;;;;;8.40;7.70;;;;;;;22.33;73.78;100868.88;4889999;28;102475;-63
2021/06/25 09:01:31;;;;;;;7.78;7.15;;;;;;;22.34;73.96;100868.53;4892534;28;102126;-62
2021/06/25 09:03:59;;;;;;;7.20;6.57;;;;;;;22.37;73.71;100870.59;4891400;28;105516;-62
2021/06/25 09:06:26;;;;;;;8.25;7.55;;;;;;;22.38;73.86;100874.19;4891682;28;102649;-63
2021/06/25 09:09:09;;;;;;;7.57;7.00;;;;;;;22.39;73.55;100864.69;4892131;28;102828;-63
2021/06/25 09:11:37;;;;;;;6.80;6.30;;;;;;;22.41;73.58;100862.41;4881820;28;102699;-62
2021/06/25 09:14:04;;;;;;;8.13;7.47;;;;;;;22.45;73.81;100860.53;4890175;28;105602;-63
2021/06/25 09:16:32;;;;;;;7.50;6.90;;;;;;;22.44;73.57;100862.50;4884417;28;104039;-62
2021/06/25 09:19:04;;;;;;;7.32;6.72;;;;;;;22.42;73.54;100864.81;4887486;28;102405;-62
2021/06/25 09:21:32;;;;;;;8.40;7.70;;;;;;;22.41;73.57;100863.19;4890007;28;102124;-62
2021/06/25 09:24:20;;;;;;;8.68;7.97;;;;;;;22.42;73.65;100864.00;4889406;28;103921;-63
2021/06/25 09:26:48;;;;;;;;;;;;;;;22.41;73.82;100863.19;4889399;28;102729;-62
2021/06/25 09:29:16;;;;;;;8.25;7.55;;;;;;;22.41;73.58;100863.19;4889843;28;102746;-61
2021/06/25 09:31:43;;;;;;;8.07;7.38;;;;;;;22.40;73.56;100860.78;4889888;28;104160;-62
2021/06/25 09:34:11;;;;;;;7.82;7.18;;;;;;;22.41;73.64;100854.09;4889478;28;103995;-62
2021/06/25 09:36:39;;;;;;;7.90;7.30;;;;;;;22.43;73.57;100848.97;4891393;28;102386;-62
2021/06/25 09:39:08;;;;;;;8.15;7.43;;;;;;;22.42;73.59;100848.16;4891094;28;103698;-61
2021/06/25 09:41:36;;;;;;;8.98;7.88;;;;;;;22.44;73.50;100856.16;4890355;28;102378;-62
2021/06/25 09:44:05;;;;;;;8.57;7.73;;;;;;;22.43;73.66;100844.25;4888063;28;103408;-62
2021/06/25 09:46:33;;;;;;;8.65;7.85;;;;;;;22.46;73.48;100848.28;4886291;28;102834;-62
2021/06/25 09:49:09;;;;;;;8.70;7.90;;;;;;;22.45;73.67;100846.69;4885640;28;103232;-62
2021/06/25 09:51:38;;;;;;;9.20;8.40;;;;;;;22.45;73.57;100838.34;4879731;28;102597;-62
2021/06/25 09:54:08;;;;;;;8.50;7.80;;;;;;;22.45;73.68;100835.59;4890507;28;104196;-62
2021/06/25 09:56:39;;;;;;;8.73;7.93;;;;;;;22.44;73.57;100828.44;4888977;28;102247;-62
2021/06/25 09:59:40;;;;;;;9.13;8.32;;;;;;;22.42;73.55;100831.53;4889482;28;102281;-62
2021/06/25 10:02:28;;;;;;;8.85;8.05;;;;;;;22.43;73.68;100832.34;4886176;28;102279;-62
2021/06/25 10:04:57;;;;;;;9.13;8.27;;;;;;;22.42;73.64;100823.22;4889485;28;103686;-62
2021/06/25 10:07:26;;;;;;;8.48;7.63;;;;;;;22.44;73.45;100822.88;4888704;28;102536;-62
2021/06/25 10:09:54;;;;;;;8.50;7.80;;;;;;;22.43;73.53;100819.31;4888237;28;102109;-62
2021/06/25 10:12:22;;;;;;;8.50;7.67;;;;;;;22.45;73.71;100814.19;4894007;28;102330;-62
2021/06/25 10:14:52;;;;;;;8.77;7.93;;;;;;;22.44;73.48;100820.91;4872800;28;103943;-62
2021/06/25 10:17:19;;;;;;;9.88;8.13;;;;;;;22.44;73.47;100820.13;4887896;28;102635;-62
2021/06/25 10:19:47;;;;;;;9.13;8.25;;;;;;;22.42;73.70;100808.56;4882664;28;105773;-62
2021/06/25 10:22:15;;;;;;;;;;;;;;;22.45;73.36;100810.63;4890600;28;102228;-62
2021/06/25 10:24:47;;;;;;;9.20;8.40;;;;;;;22.42;73.62;100809.34;4889367;28;104605;-65
2021/06/25 10:27:17;;;;;;;9.38;8.57;;;;;;;22.42;73.62;100803.81;4888504;28;102379;-62
2021/06/25 10:29:44;;;;;;;9.45;8.55;;;;;;;22.41;73.66;100813.28;4887838;28;102620;-62
2021/06/25 10:32:10;;;;;;;9.75;8.85;;;;;;;22.42;73.53;100803.81;4886714;28;102196;-61
2021/06/25 10:34:40;;;;;;;9.55;8.57;;;;;;;22.41;73.65;100813.28;4889435;28;103708;-62
2021/06/25 10:37:09;;;;;;;9.25;8.45;;;;;;;22.41;73.64;100816.06;4888627;28;102443;-61
2021/06/25 10:39:36;;;;;;;8.98;8.23;;;;;;;22.43;73.67;100821.25;4890012;28;102308;-61
2021/06/25 10:42:10;;;;;;;9.40;8.52;;;;;;;22.41;73.94;100812.50;4887233;28;102342;-62
2021/06/25 10:44:43;;;;;;;9.23;8.38;;;;;;;22.42;73.63;100816.88;4881975;28;104376;-62
2021/06/25 10:47:20;;;;;;;9.57;8.77;;;;;;;22.43;73.72;100821.25;4880632;28;103134;-62
2021/06/25 10:50:28;;;;;;;9.60;8.60;;;;;;;22.43;73.47;100826.78;4885342;28;102910;-62
2021/06/25 10:53:16;;;;;;;9.30;8.48;;;;;;;22.43;73.61;100826.78;4889525;28;102101;-62
2021/06/25 10:55:57;;;;;;;;;;;;;;;22.43;73.66;100826.78;4889856;28;102666;-61
2021/06/25 10:58:25;;;;;;;9.30;8.35;;;;;;;22.43;73.51;100824.03;4890332;28;102277;-61
2021/06/25 11:00:57;;;;;;;9.77;8.85;;;;;;;22.42;73.60;100819.63;4883937;28;103277;-62
2021/06/25 11:03:41;;;;;;;9.35;8.52;;;;;;;22.42;73.73;100816.88;4891850;28;102100;-62
2021/06/25 11:06:29;;;;;;;10.02;9.10;;;;;;;22.41;73.89;100818.84;4890444;28;104078;-61
2021/06/25 11:09:04;;;;;;;9.75;8.85;;;;;;;22.42;73.58;100803.00;4893135;28;102120;-62
2021/06/25 11:11:32;;;;;;;9.25;8.45;;;;;;;22.42;73.69;100814.09;4893481;28;102062;-62
2021/06/25 11:14:01;;;;;;;9.90;8.93;;;;;;;22.41;73.47;100806.94;4890338;28;102390;-63
2021/06/25 11:16:28;;;;;;;9.90;8.90;;;;;;;22.41;73.57;100806.94;4893188;28;102993;-62
2021/06/25 11:18:55;;;;;;;9.38;8.63;;;;;;;22.40;73.64;100803.38;4891695;28;102935;-62
2021/06/25 11:21:41;;;;;;;9.27;8.43;;;;;;;22.40;73.65;100799.78;4885898;28;102166;-62
2021/06/25 11:24:08;;;;;;;9.40;8.57;;;;;;;22.39;73.63;100803.69;4887953;28;102461;-62
2021/06/25 11:26:34;;;;;;;9.45;8.57;;;;;;;22.40;73.64;100800.59;4887662;28;103962;-62
2021/06/25 11:29:09;;;;;;;9.00;8.20;;;;;;;22.39;73.66;100798.16;4890602;28;102991;-62
2021/06/25 11:31:36;;;;;;;9.82;8.63;;;;;;;22.39;73.60;100792.59;4888034;28;102272;-62
2021/06/25 11:34:04;;;;;;;9.90;8.60;;;;;;;22.38;73.78;100791.81;4892458;28;102272;-62